createdAt,value
2019-02-20T00:00:47.408Z,15.83
2019-02-20T00:03:15.673Z,15.47
2019-02-20T00:05:43.779Z,16.55
2019-02-20T00:08:11.986Z,15.75
2019-02-20T00:10:40.043Z,15.95
2019-02-20T00:13:08.354Z,14.85
2019-02-20T00:15:36.548Z,15.50
2019-02-20T00:18:04.620Z,13.95
2019-02-20T00:20:33.078Z,15.18
2019-02-20T00:23:01.210Z,14.50
2019-02-20T00:25:29.411Z,15.10
2019-02-20T00:27:57.580Z,14.80
2019-02-20T00:30:25.701Z,14.58
2019-02-20T00:32:53.841Z,12.58
2019-02-20T00:35:22.012Z,14.40
2019-02-20T00:37:50.071Z,13.48
2019-02-20T00:40:18.226Z,12.95
2019-02-20T00:42:46.384Z,12.78
2019-02-20T00:45:18.985Z,12.35
2019-02-20T00:48:23.353Z,11.50
2019-02-20T00:50:55.656Z,11.70
2019-02-20T00:53:31.314Z,12.43
2019-02-20T00:55:59.453Z,14.07
2019-02-20T00:58:27.586Z,11.80
2019-02-20T01:00:55.729Z,11.12
2019-02-20T01:03:23.861Z,13.50
2019-02-20T01:05:51.931Z,11.38
2019-02-20T01:08:20.099Z,12.53
2019-02-20T01:10:48.516Z,11.90
2019-02-20T01:13:16.704Z,10.98
2019-02-20T01:15:44.880Z,11.30
2019-02-20T01:18:12.991Z,12.10
2019-02-20T01:20:41.122Z,11.57
2019-02-20T01:23:09.299Z,12.95
2019-02-20T01:25:37.439Z,10.82
2019-02-20T01:28:05.585Z,9.98
2019-02-20T01:30:33.823Z,10.90
2019-02-20T01:33:01.960Z,10.70
2019-02-20T01:35:30.080Z,9.55
2019-02-20T01:37:58.253Z,9.93
2019-02-20T01:40:26.436Z,9.50
2019-02-20T01:42:54.476Z,9.45
2019-02-20T01:45:22.574Z,8.93
2019-02-20T01:47:51.594Z,9.08
2019-02-20T01:50:19.730Z,10.15
2019-02-20T01:52:47.874Z,9.88
2019-02-20T01:55:16.010Z,8.63
2019-02-20T01:57:44.194Z,8.60
2019-02-20T02:00:12.461Z,9.65
2019-02-20T02:02:40.589Z,8.07
2019-02-20T02:05:14.908Z,9.20
2019-02-20T02:07:38.577Z,8.88
2019-02-20T02:10:07.593Z,8.87
2019-02-20T02:12:35.691Z,10.48
2019-02-20T02:15:04.313Z,8.55
2019-02-20T02:17:32.436Z,9.20
2019-02-20T02:20:00.619Z,8.13
2019-02-20T02:22:28.758Z,8.10
2019-02-20T02:24:56.900Z,8.65
2019-02-20T02:27:25.014Z,7.83
2019-02-20T02:29:53.158Z,8.27
2019-02-20T02:32:21.309Z,8.63
2019-02-20T02:34:49.428Z,7.80
2019-02-20T02:37:17.580Z,8.00
2019-02-20T02:39:45.732Z,7.05
2019-02-20T02:42:13.850Z,7.90
2019-02-20T02:44:41.971Z,7.87
2019-02-20T02:47:10.143Z,8.80
2019-02-20T02:49:38.349Z,7.10
2019-02-20T02:52:06.487Z,7.25
2019-02-20T02:54:34.856Z,7.23
2019-02-20T02:57:22.423Z,6.60
2019-02-20T02:59:50.594Z,8.80
2019-02-20T03:02:18.713Z,6.80
2019-02-20T03:04:46.754Z,7.57
2019-02-20T03:07:14.809Z,7.00
2019-02-20T03:09:42.974Z,6.83
2019-02-20T03:12:11.364Z,6.47
2019-02-20T03:14:39.413Z,7.12
2019-02-20T03:17:07.578Z,7.15
2019-02-20T03:19:35.706Z,6.80
2019-02-20T03:22:03.826Z,6.60
2019-02-20T03:24:31.979Z,6.80
2019-02-20T03:27:00.091Z,6.65
2019-02-20T03:29:28.266Z,6.10
2019-02-20T03:31:56.305Z,6.92
2019-02-20T03:34:24.428Z,6.67
2019-02-20T03:36:52.621Z,6.90
2019-02-20T03:39:20.793Z,6.53
2019-02-20T03:41:49.098Z,7.42
2019-02-20T03:44:17.446Z,6.22
2019-02-20T03:46:45.561Z,6.15
2019-02-20T03:49:13.689Z,5.80
2019-02-20T03:51:41.851Z,6.23
2019-02-20T03:54:09.989Z,6.45
2019-02-20T03:56:38.157Z,5.72
2019-02-20T03:59:06.285Z,7.03
2019-02-20T04:01:34.429Z,5.85
2019-02-20T04:04:02.578Z,5.95
2019-02-20T04:06:30.700Z,5.35
2019-02-20T04:08:59.090Z,6.40
2019-02-20T04:11:27.245Z,6.93
2019-02-20T04:13:56.864Z,5.90
2019-02-20T04:16:25.249Z,5.78
2019-02-20T04:18:53.392Z,6.33
2019-02-20T04:21:21.500Z,5.65
2019-02-20T04:23:49.590Z,5.85
2019-02-20T04:26:17.801Z,5.47
2019-02-20T04:28:45.921Z,6.08
2019-02-20T04:31:14.271Z,5.83
2019-02-20T04:33:42.407Z,5.85
2019-02-20T04:36:10.560Z,5.62
2019-02-20T04:38:38.705Z,5.30
2019-02-20T04:41:06.843Z,5.33
2019-02-20T04:43:34.997Z,5.63
2019-02-20T04:46:03.242Z,5.53
2019-02-20T04:48:31.381Z,5.30
2019-02-20T04:51:00.077Z,5.42
2019-02-20T04:53:28.288Z,5.30
2019-02-20T04:55:56.431Z,5.15
2019-02-20T04:58:24.573Z,5.50
2019-02-20T05:00:52.698Z,4.95
2019-02-20T05:03:23.067Z,5.97
2019-02-20T05:05:50.548Z,5.00
2019-02-20T05:08:18.669Z,5.40
2019-02-20T05:10:46.891Z,5.40
2019-02-20T05:13:15.003Z,5.30
2019-02-20T05:15:43.125Z,5.03
2019-02-20T05:18:11.466Z,5.05
2019-02-20T05:20:39.613Z,5.78
2019-02-20T05:23:07.741Z,5.10
2019-02-20T05:25:35.871Z,5.23
2019-02-20T05:28:04.018Z,5.10
2019-02-20T05:30:32.196Z,5.53
2019-02-20T05:33:00.320Z,5.00
2019-02-20T05:35:28.461Z,5.95
2019-02-20T05:37:56.577Z,4.97
2019-02-20T05:40:24.672Z,5.10
2019-02-20T05:42:52.815Z,4.95
2019-02-20T05:45:20.991Z,5.08
2019-02-20T05:47:49.162Z,4.85
2019-02-20T05:50:17.287Z,5.67
2019-02-20T05:52:45.542Z,4.73
2019-02-20T05:55:13.667Z,5.08
2019-02-20T05:57:41.804Z,4.78
2019-02-20T06:00:13.358Z,5.00
2019-02-20T06:02:41.814Z,4.75
2019-02-20T06:05:09.958Z,4.80
2019-02-20T06:07:38.091Z,5.30
2019-02-20T06:10:07.790Z,5.12
2019-02-20T06:12:35.953Z,4.67
2019-02-20T06:15:05.298Z,4.50
2019-02-20T06:17:33.448Z,4.90
2019-02-20T06:20:01.568Z,4.95
2019-02-20T06:22:49.136Z,4.92
2019-02-20T06:25:42.326Z,4.53
2019-02-20T06:28:35.713Z,5.30
2019-02-20T06:31:03.853Z,5.90
2019-02-20T06:33:32.025Z,5.33
2019-02-20T06:36:00.163Z,5.33
2019-02-20T06:38:28.316Z,6.30
2019-02-20T06:40:56.471Z,6.58
2019-02-20T06:43:24.762Z,6.73
2019-02-20T06:45:52.886Z,8.35
2019-02-20T06:48:21.065Z,7.55
2019-02-20T06:51:08.622Z,8.53
2019-02-20T06:53:36.837Z,9.10
2019-02-20T06:56:04.890Z,8.95
2019-02-20T06:58:52.502Z,8.85
2019-02-20T07:01:20.718Z,9.23
2019-02-20T07:03:48.822Z,9.98
2019-02-20T07:06:18.610Z,14.47
2019-02-20T07:08:48.384Z,18.17
2019-02-20T07:11:18.151Z,14.28
2019-02-20T07:13:47.933Z,12.63
2019-02-20T07:16:20.199Z,12.73
2019-02-20T07:18:52.557Z,13.63
2019-02-20T07:21:28.302Z,11.45
2019-02-20T07:24:00.879Z,13.73
2019-02-20T07:26:30.645Z,13.40
2019-02-20T07:29:00.412Z,12.98
2019-02-20T07:31:28.581Z,15.20
2019-02-20T07:33:56.746Z,19.63
2019-02-20T07:36:24.870Z,23.47
2019-02-20T07:38:53.001Z,28.67
2019-02-20T07:41:21.249Z,37.17
2019-02-20T07:43:49.391Z,36.10
2019-02-20T07:46:17.507Z,33.63
2019-02-20T07:48:45.655Z,38.20
2019-02-20T07:51:14.930Z,44.90
2019-02-20T07:53:43.261Z,40.97
2019-02-20T07:56:11.412Z,51.40
2019-02-20T07:58:39.525Z,52.35
2019-02-20T08:01:07.609Z,56.68
2019-02-20T08:03:35.850Z,52.90
2019-02-20T08:06:04.067Z,64.30
2019-02-20T08:08:32.393Z,63.95
2019-02-20T08:11:00.590Z,77.57
2019-02-20T08:13:28.793Z,67.20
2019-02-20T08:15:56.910Z,74.37
2019-02-20T08:18:25.280Z,78.00
2019-02-20T08:20:53.422Z,75.57
2019-02-20T08:23:21.489Z,79.37
2019-02-20T08:25:49.652Z,75.42
2019-02-20T08:28:17.823Z,69.10
2019-02-20T08:30:45.954Z,69.43
2019-02-20T08:33:14.226Z,69.40
2019-02-20T08:36:01.740Z,79.62
2019-02-20T08:38:29.873Z,78.02
2019-02-20T08:40:58.053Z,79.27
2019-02-20T08:43:26.261Z,87.17
2019-02-20T08:45:54.395Z,84.53
2019-02-20T08:48:23.190Z,81.72
2019-02-20T08:50:51.405Z,179.72
2019-02-20T08:53:19.553Z,152.50
2019-02-20T08:55:47.705Z,126.78
2019-02-20T08:58:16.705Z,121.92
2019-02-20T09:00:44.949Z,124.47
2019-02-20T09:03:13.079Z,136.10
2019-02-20T09:05:41.205Z,133.43
2019-02-20T09:08:09.268Z,117.85
2019-02-20T09:10:37.405Z,115.67
2019-02-20T09:13:05.586Z,124.25
2019-02-20T09:15:33.726Z,115.60
2019-02-20T09:18:02.014Z,127.62
2019-02-20T09:20:30.438Z,125.37
2019-02-20T09:23:17.949Z,116.25
2019-02-20T09:25:46.114Z,129.00
2019-02-20T09:28:14.242Z,130.10
2019-02-20T09:30:43.551Z,123.90
2019-02-20T09:33:12.026Z,124.40
2019-02-20T09:35:40.172Z,123.62
2019-02-20T09:38:10.294Z,116.05
2019-02-20T09:40:38.094Z,120.87
2019-02-20T09:43:06.366Z,124.10
2019-02-20T09:45:41.700Z,118.95
2019-02-20T09:48:04.342Z,130.20
2019-02-20T09:50:52.049Z,137.47
2019-02-20T09:53:20.158Z,140.07
2019-02-20T09:55:51.481Z,158.72
2019-02-20T09:58:18.114Z,155.93
2019-02-20T10:00:46.250Z,159.05
2019-02-20T10:03:14.409Z,155.50
2019-02-20T10:05:42.475Z,153.97
2019-02-20T10:08:10.600Z,171.98
2019-02-20T10:10:38.744Z,173.20
2019-02-20T10:13:06.889Z,180.93
2019-02-20T10:15:35.148Z,190.97
2019-02-20T10:18:03.279Z,196.78
2019-02-20T10:20:31.406Z,213.53
2019-02-20T10:22:59.592Z,197.82
2019-02-20T10:25:27.789Z,201.00
2019-02-20T10:27:55.941Z,199.68
2019-02-20T10:30:24.094Z,205.03
2019-02-20T10:32:52.176Z,204.00
2019-02-20T10:35:20.363Z,208.90
2019-02-20T10:37:48.565Z,190.70
2019-02-20T10:40:16.772Z,184.22
2019-02-20T10:42:45.754Z,177.65
2019-02-20T10:45:13.887Z,170.50
2019-02-20T10:47:42.017Z,174.20
2019-02-20T10:50:13.711Z,160.97
2019-02-20T10:52:41.883Z,160.97
2019-02-20T10:55:10.125Z,163.28
2019-02-20T10:57:38.306Z,155.27
2019-02-20T11:00:09.789Z,147.37
2019-02-20T11:02:37.909Z,139.37
2019-02-20T11:05:06.114Z,150.80
2019-02-20T11:07:34.309Z,144.68
2019-02-20T11:10:02.656Z,153.02
2019-02-20T11:12:30.898Z,145.38
2019-02-20T11:14:59.134Z,146.55
2019-02-20T11:17:27.275Z,137.22
2019-02-20T11:19:55.465Z,126.40
2019-02-20T11:22:23.529Z,117.03
2019-02-20T11:24:51.747Z,113.77
2019-02-20T11:27:19.913Z,121.02
2019-02-20T11:29:47.977Z,120.60
2019-02-20T11:32:16.043Z,123.72
2019-02-20T11:34:44.172Z,109.05
2019-02-20T11:37:12.306Z,161.18
2019-02-20T11:39:40.465Z,135.37
2019-02-20T11:42:08.586Z,135.80
2019-02-20T11:44:36.838Z,138.82
2019-02-20T11:47:05.280Z,165.50
2019-02-20T11:49:33.408Z,144.93
2019-02-20T11:52:01.589Z,151.80
2019-02-20T11:54:29.786Z,172.10
2019-02-20T11:56:57.913Z,170.68
2019-02-20T11:59:25.993Z,199.47
2019-02-20T12:01:54.064Z,180.20
2019-02-20T12:04:22.273Z,178.78
2019-02-20T12:06:50.478Z,230.50
2019-02-20T12:09:18.636Z,238.05
2019-02-20T12:11:46.795Z,226.77
2019-02-20T12:14:15.014Z,304.98
2019-02-20T12:16:43.226Z,238.15
2019-02-20T12:19:11.415Z,241.03
2019-02-20T12:21:39.566Z,252.97
2019-02-20T12:24:07.956Z,276.45
2019-02-20T12:26:36.193Z,291.15
2019-02-20T12:29:04.341Z,296.37
2019-02-20T12:31:32.568Z,317.80
2019-02-20T12:34:01.657Z,296.97
2019-02-20T12:36:30.062Z,334.92
2019-02-20T12:38:58.524Z,312.10
2019-02-20T12:41:26.653Z,323.50
2019-02-20T12:43:54.894Z,302.50
2019-02-20T12:46:23.050Z,292.00
2019-02-20T12:48:51.186Z,279.05
2019-02-20T12:51:19.318Z,272.40
2019-02-20T12:53:47.489Z,284.65
2019-02-20T12:56:15.705Z,282.27
2019-02-20T12:58:43.918Z,261.05
2019-02-20T13:01:12.081Z,278.18
2019-02-20T13:03:59.644Z,260.80
2019-02-20T13:06:29.698Z,257.35
2019-02-20T13:08:57.733Z,296.98
2019-02-20T13:11:25.871Z,291.82
2019-02-20T13:13:54.053Z,305.35
2019-02-20T13:16:22.254Z,277.62
2019-02-20T13:18:50.450Z,284.60
2019-02-20T13:21:18.586Z,291.82
2019-02-20T13:23:55.776Z,299.17
2019-02-20T13:26:23.989Z,307.65
2019-02-20T13:28:52.124Z,301.73
2019-02-20T13:31:20.574Z,317.68
2019-02-20T13:34:08.154Z,309.90
2019-02-20T13:36:36.422Z,308.38
2019-02-20T13:39:05.725Z,322.95
2019-02-20T13:41:33.861Z,300.13
2019-02-20T13:44:02.015Z,309.02
2019-02-20T13:46:30.211Z,299.15
2019-02-20T13:48:58.324Z,301.20
2019-02-20T13:51:26.454Z,308.80
2019-02-20T13:53:54.637Z,289.27
2019-02-20T13:56:22.772Z,316.68
2019-02-20T13:58:50.902Z,307.75
2019-02-20T14:01:19.100Z,276.45
2019-02-20T14:03:47.238Z,275.95
2019-02-20T14:06:15.485Z,273.15
2019-02-20T14:08:43.678Z,274.25
2019-02-20T14:11:13.101Z,259.43
2019-02-20T14:13:41.228Z,261.23
2019-02-20T14:16:09.414Z,240.03
2019-02-20T14:18:37.550Z,250.22
2019-02-20T14:21:05.705Z,241.27
2019-02-20T14:23:33.857Z,231.85
2019-02-20T14:26:02.006Z,226.75
2019-02-20T14:28:30.181Z,222.22
2019-02-20T14:30:58.330Z,219.10
2019-02-20T14:33:26.544Z,202.40
2019-02-20T14:35:54.739Z,220.83
2019-02-20T14:38:22.970Z,211.82
2019-02-20T14:40:51.131Z,215.45
2019-02-20T14:43:19.297Z,242.07
2019-02-20T14:45:47.449Z,229.87
2019-02-20T14:48:15.970Z,239.60
2019-02-20T14:50:44.125Z,230.20
2019-02-20T14:53:12.336Z,227.45
2019-02-20T14:55:40.494Z,235.15
2019-02-20T14:58:08.708Z,232.35
2019-02-20T15:00:36.847Z,225.35
2019-02-20T15:03:05.055Z,258.23
2019-02-20T15:05:33.285Z,305.40
2019-02-20T15:08:02.187Z,265.23
2019-02-20T15:10:30.545Z,291.77
2019-02-20T15:12:58.666Z,286.43
2019-02-20T15:15:26.882Z,256.82
2019-02-20T15:17:55.836Z,274.40
2019-02-20T15:20:23.966Z,276.77
2019-02-20T15:22:52.088Z,245.67
2019-02-20T15:25:20.262Z,252.93
2019-02-20T15:27:48.493Z,248.90
2019-02-20T15:30:16.755Z,251.45
2019-02-20T15:32:44.949Z,248.97
2019-02-20T15:35:13.373Z,225.43
2019-02-20T15:37:41.503Z,221.77
2019-02-20T15:40:10.134Z,217.75
2019-02-20T15:42:38.268Z,223.87
2019-02-20T15:45:07.769Z,224.67
2019-02-20T15:47:35.925Z,212.00
2019-02-20T15:50:05.934Z,218.60
2019-02-20T15:52:34.437Z,209.90
2019-02-20T15:55:02.670Z,212.97
2019-02-20T15:57:37.784Z,224.98
2019-02-20T16:00:00.618Z,213.63
2019-02-20T16:02:28.769Z,198.02
2019-02-20T16:04:56.913Z,214.60
2019-02-20T16:07:25.089Z,198.80
2019-02-20T16:09:54.047Z,198.80
2019-02-20T16:12:22.196Z,187.68
2019-02-20T16:14:50.354Z,189.57
2019-02-20T16:17:18.485Z,171.62
2019-02-20T16:19:46.636Z,184.48
2019-02-20T16:22:14.805Z,176.78
2019-02-20T16:24:42.942Z,179.40
2019-02-20T16:27:11.658Z,167.75
2019-02-20T16:29:39.976Z,159.30
2019-02-20T16:32:08.118Z,168.22
2019-02-20T16:34:36.260Z,165.80
2019-02-20T16:37:04.415Z,165.22
2019-02-20T16:39:32.625Z,148.43
2019-02-20T16:42:00.794Z,138.90
2019-02-20T16:44:29.239Z,155.80
2019-02-20T16:46:57.399Z,140.03
2019-02-20T16:49:25.522Z,134.67
2019-02-20T16:51:53.702Z,132.37
2019-02-20T16:54:21.829Z,132.73
2019-02-20T16:56:49.952Z,142.20
2019-02-20T16:59:18.146Z,135.30
2019-02-20T17:01:46.710Z,118.22
2019-02-20T17:04:14.913Z,124.00
2019-02-20T17:06:50.038Z,119.60
2019-02-20T17:09:18.318Z,117.73
2019-02-20T17:11:46.480Z,113.92
2019-02-20T17:14:14.649Z,114.62
2019-02-20T17:16:43.080Z,111.95
2019-02-20T17:19:14.200Z,100.60
2019-02-20T17:21:42.324Z,108.10
2019-02-20T17:24:10.646Z,101.30
2019-02-20T17:26:40.901Z,103.35
2019-02-20T17:29:09.045Z,102.27
2019-02-20T17:31:37.646Z,103.73
2019-02-20T17:34:06.018Z,99.55
2019-02-20T17:36:34.173Z,93.33
2019-02-20T17:39:02.474Z,95.20
2019-02-20T17:41:30.643Z,92.85
2019-02-20T17:43:58.790Z,97.07
2019-02-20T17:46:27.002Z,96.00
2019-02-20T17:48:55.666Z,90.00
2019-02-20T17:51:24.066Z,91.47
2019-02-20T17:53:52.199Z,87.02
2019-02-20T17:56:20.322Z,89.77
2019-02-20T17:58:48.449Z,84.42
2019-02-20T18:01:16.949Z,85.07
2019-02-20T18:03:45.126Z,83.75
2019-02-20T18:06:13.225Z,80.60
2019-02-20T18:08:41.390Z,79.10
2019-02-20T18:11:09.526Z,74.53
2019-02-20T18:13:37.641Z,74.67
2019-02-20T18:16:05.848Z,65.83
2019-02-20T18:18:34.009Z,74.32
2019-02-20T18:21:02.167Z,66.53
2019-02-20T18:23:30.308Z,76.87
2019-02-20T18:25:58.366Z,67.75
2019-02-20T18:28:26.755Z,68.85
2019-02-20T18:30:55.065Z,63.97
2019-02-20T18:33:23.477Z,61.77
2019-02-20T18:35:51.650Z,43.87
2019-02-20T18:38:19.883Z,50.78
2019-02-20T18:40:51.679Z,54.83
2019-02-20T18:43:19.988Z,55.12
2019-02-20T18:45:48.131Z,51.42
2019-02-20T18:48:16.311Z,56.03
2019-02-20T18:50:44.518Z,50.70
2019-02-20T18:53:12.685Z,53.25
2019-02-20T18:55:41.754Z,50.58
2019-02-20T18:58:09.901Z,48.42
2019-02-20T19:00:38.089Z,52.85
2019-02-20T19:03:14.292Z,48.85
2019-02-20T19:05:42.541Z,46.80
2019-02-20T19:08:29.022Z,48.07
2019-02-20T19:11:00.037Z,45.12
2019-02-20T19:13:42.352Z,46.25
2019-02-20T19:16:27.301Z,44.33
2019-02-20T19:19:02.726Z,46.50
2019-02-20T19:21:34.555Z,41.77
2019-02-20T19:24:40.002Z,50.03
2019-02-20T19:27:10.135Z,45.98
2019-02-20T19:29:42.885Z,41.45
2019-02-20T19:32:30.966Z,42.00
2019-02-20T19:35:18.522Z,41.02
2019-02-20T19:38:06.224Z,43.33
2019-02-20T19:40:40.947Z,42.50
2019-02-20T19:43:10.957Z,41.40
2019-02-20T19:45:57.494Z,46.60
2019-02-20T19:48:45.322Z,45.40
2019-02-20T19:51:17.936Z,41.92
2019-02-20T19:53:53.718Z,38.98
2019-02-20T19:56:44.050Z,44.53
2019-02-20T19:59:12.929Z,38.90
2019-02-20T20:01:54.274Z,42.27
2019-02-20T20:04:29.669Z,41.90
2019-02-20T20:07:16.149Z,45.60
2019-02-20T20:09:45.920Z,38.90
2019-02-20T20:12:15.675Z,35.80
2019-02-20T20:14:45.413Z,41.42
2019-02-20T20:17:33.075Z,39.20
2019-02-20T20:20:02.929Z,37.70
2019-02-20T20:22:50.504Z,42.53
2019-02-20T20:25:20.369Z,35.73
2019-02-20T20:27:50.145Z,40.48
2019-02-20T20:30:23.150Z,37.28
2019-02-20T20:32:56.395Z,34.03
2019-02-20T20:35:42.719Z,35.83
2019-02-20T20:38:12.509Z,35.28
2019-02-20T20:40:44.768Z,36.20
2019-02-20T20:43:17.475Z,37.25
2019-02-20T20:45:47.230Z,34.60
2019-02-20T20:48:17.052Z,33.15
2019-02-20T20:51:02.002Z,34.33
2019-02-20T20:53:31.778Z,31.52
2019-02-20T20:56:04.542Z,32.60
2019-02-20T20:58:40.284Z,31.77
2019-02-20T21:01:10.394Z,33.05
2019-02-20T21:03:40.150Z,32.85
2019-02-20T21:06:15.875Z,31.50
2019-02-20T21:08:45.624Z,30.48
2019-02-20T21:11:15.315Z,28.98
2019-02-20T21:13:57.277Z,30.63
2019-02-20T21:16:43.829Z,34.23
2019-02-20T21:19:21.210Z,34.67
2019-02-20T21:21:54.257Z,31.20
2019-02-20T21:24:24.060Z,31.07
2019-02-20T21:27:02.523Z,29.23
2019-02-20T21:29:41.361Z,28.47
2019-02-20T21:32:11.126Z,26.75
2019-02-20T21:34:52.995Z,29.15
2019-02-20T21:37:40.554Z,27.10
2019-02-20T21:40:19.422Z,29.92
2019-02-20T21:42:55.162Z,27.90
2019-02-20T21:45:24.995Z,25.67
2019-02-20T21:47:57.920Z,28.47
2019-02-20T21:50:27.657Z,27.17
2019-02-20T21:53:06.355Z,26.48
2019-02-20T21:55:36.366Z,25.65
2019-02-20T21:58:18.362Z,26.45
2019-02-20T22:01:04.881Z,27.48
2019-02-20T22:03:52.485Z,27.13
2019-02-20T22:06:22.455Z,26.37
2019-02-20T22:08:55.163Z,24.20
2019-02-20T22:11:24.960Z,26.07
2019-02-20T22:13:57.447Z,24.20
2019-02-20T22:16:29.593Z,27.48
2019-02-20T22:19:15.770Z,26.37
2019-02-20T22:22:00.509Z,21.93
2019-02-20T22:24:42.373Z,27.30
2019-02-20T22:27:20.317Z,25.63
2019-02-20T22:30:01.503Z,23.38
2019-02-20T22:32:48.352Z,24.03
2019-02-20T22:35:24.069Z,21.73
2019-02-20T22:38:09.006Z,25.20
2019-02-20T22:40:47.409Z,22.45
2019-02-20T22:43:31.817Z,22.75
2019-02-20T22:46:04.529Z,23.42
2019-02-20T22:48:34.318Z,22.13
2019-02-20T22:51:06.766Z,23.20
2019-02-20T22:53:42.554Z,22.02
2019-02-20T22:56:15.262Z,22.93
2019-02-20T22:58:50.950Z,21.53
2019-02-20T23:01:21.273Z,21.35
2019-02-20T23:03:54.113Z,21.25
2019-02-20T23:06:40.344Z,22.05
2019-02-20T23:09:10.153Z,21.52
2019-02-20T23:12:11.079Z,19.15
2019-02-20T23:14:58.118Z,22.58
2019-02-20T23:17:27.351Z,19.37
2019-02-20T23:19:55.859Z,21.37
2019-02-20T23:22:23.998Z,20.40
2019-02-20T23:24:52.113Z,20.45
2019-02-20T23:27:20.270Z,18.95
2019-02-20T23:29:48.328Z,19.12
2019-02-20T23:32:16.465Z,19.52
2019-02-20T23:34:44.598Z,19.42
2019-02-20T23:37:12.759Z,17.02
2019-02-20T23:39:40.953Z,18.82
2019-02-20T23:42:09.102Z,16.62
2019-02-20T23:44:56.685Z,17.62
2019-02-20T23:47:24.772Z,17.65
2019-02-20T23:49:53.057Z,18.35
2019-02-20T23:52:21.206Z,17.98
2019-02-20T23:54:49.392Z,16.23
2019-02-20T23:57:17.537Z,17.07
2019-02-20T23:59:45.689Z,16.20
